Terminal Aerodrome Forecast
Issued by NWS Pittsburgh, PA

Current Version | Previous Version | Graphics & Text | Print | Product List | Glossary On
Versions: 1 2 3 4 5 6 7 8 9 10 11 12 13 14 15 16 17 18 19 20 21 22 23 24 25 26 27 28 29 30
470
FTUS41 KPBZ 102055 AAA
TAFPIT
TAF AMD
KPIT 102055Z 1021/1124 23010KT P6SM SCT035 BKN070
     FM110500 24008KT P6SM VCSH OVC025
     FM110900 27010KT P6SM OVC015
     FM111800 22006KT P6SM BKN040=

USA.gov is the U.S. government's official web portal to all federal, state and local government web resources and services.